Time,TemperatureF,DewpointF,PressureIn,WindDirection,WindDirectionDegrees,WindSpeedMPH,WindSpeedGustMPH,Humidity,HourlyPrecipIn,Conditions,Clouds,dailyrainin,SolarRadiationWatts/m^2,SoftwareType,DateUTC
2013-09-25 00:00:00,55.0,48.0,29.87,East,91,5.0,8.0,77,0.00,,,0.00,0,weatherlink.com 1.10,2013-09-25 04:00:00,
2013-09-25 00:15:00,54.7,48.0,29.87,East,93,6.0,7.0,78,0.00,,,0.00,0,weatherlink.com 1.10,2013-09-25 04:15:00,
2013-09-25 00:30:00,54.2,48.0,29.86,East,92,5.0,6.0,79,0.00,,,0.00,0,weatherlink.com 1.10,2013-09-25 04:30:00,
2013-09-25 00:45:00,53.7,48.0,29.86,East,92,0.0,6.0,80,0.00,,,0.00,0,weatherlink.com 1.10,2013-09-25 04:45:00,
2013-09-25 01:00:00,53.3,48.0,29.86,East,92,1.0,5.0,81,0.00,,,0.00,0,weatherlink.com 1.10,2013-09-25 05:00:00,
2013-09-25 01:30:00,52.7,48.0,29.86,East,92,0.0,3.0,83,0.00,,,0.00,0,weatherlink.com 1.10,2013-09-25 05:30:00,
2013-09-25 01:45:00,52.3,48.0,29.86,East,91,2.0,5.0,84,0.00,,,0.00,0,weatherlink.com 1.10,2013-09-25 05:45:00,
2013-09-25 02:00:00,51.9,48.0,29.86,East,92,2.0,6.0,85,0.00,,,0.00,0,weatherlink.com 1.10,2013-09-25 06:00:00,
2013-09-25 02:15:00,51.4,47.0,29.86,East,92,0.0,3.0,86,0.00,,,0.00,0,weatherlink.com 1.10,2013-09-25 06:15:00,
2013-09-25 02:30:00,51.4,48.0,29.86,East,92,2.0,5.0,87,0.00,,,0.00,0,weatherlink.com 1.10,2013-09-25 06:30:00,
2013-09-25 02:45:00,51.2,48.0,29.86,East,92,0.0,3.0,87,0.00,,,0.00,0,weatherlink.com 1.10,2013-09-25 06:45:00,
2013-09-25 03:00:00,50.8,47.0,29.86,East,92,0.0,5.0,88,0.00,,,0.00,0,weatherlink.com 1.10,2013-09-25 07:00:00,
2013-09-25 03:15:00,50.6,48.0,29.86,East,92,0.0,3.0,89,0.00,,,0.00,0,weatherlink.com 1.10,2013-09-25 07:15:00,
2013-09-25 03:30:00,50.3,47.0,29.86,East,92,0.0,2.0,89,0.00,,,0.00,0,weatherlink.com 1.10,2013-09-25 07:30:00,
2013-09-25 03:45:00,50.0,47.0,29.86,East,92,0.0,3.0,90,0.00,,,0.00,0,weatherlink.com 1.10,2013-09-25 07:45:00,
2013-09-25 04:00:00,49.8,47.0,29.86,East,91,0.0,2.0,91,0.00,,,0.00,0,weatherlink.com 1.10,2013-09-25 08:00:00,
2013-09-25 04:15:00,49.7,48.0,29.86,East,92,2.0,3.0,92,0.00,,,0.00,0,weatherlink.com 1.10,2013-09-25 08:15:00,
2013-09-25 04:30:00,49.6,47.0,29.86,East,91,1.0,3.0,92,0.00,,,0.00,0,weatherlink.com 1.10,2013-09-25 08:30:00,
2013-09-25 04:45:00,49.5,47.0,29.85,East,92,2.0,5.0,92,0.00,,,0.00,0,weatherlink.com 1.10,2013-09-25 08:45:00,
2013-09-25 05:00:00,49.6,47.0,29.85,East,91,2.0,6.0,92,0.00,,,0.00,0,weatherlink.com 1.10,2013-09-25 09:00:00,
2013-09-25 05:15:00,49.5,48.0,29.85,East,92,1.0,3.0,93,0.00,,,0.00,0,weatherlink.com 1.10,2013-09-25 09:15:00,
2013-09-25 05:30:00,49.4,48.0,29.85,East,91,0.0,3.0,93,0.00,,,0.00,0,weatherlink.com 1.10,2013-09-25 09:30:00,
2013-09-25 05:45:00,49.2,47.0,29.85,East,92,0.0,3.0,93,0.00,,,0.00,0,weatherlink.com 1.10,2013-09-25 09:45:00,
2013-09-25 06:00:00,49.0,47.0,29.86,East,92,0.0,3.0,93,0.00,,,0.00,0,weatherlink.com 1.10,2013-09-25 10:00:00,
2013-09-25 06:15:00,48.8,47.0,29.86,East,91,1.0,5.0,94,0.00,,,0.00,0,weatherlink.com 1.10,2013-09-25 10:15:00,
2013-09-25 06:30:00,48.8,47.0,29.86,East,92,2.0,6.0,94,0.00,,,0.00,0,weatherlink.com 1.10,2013-09-25 10:30:00,
2013-09-25 06:45:00,48.7,47.0,29.86,East,92,0.0,3.0,94,0.00,,,0.00,0,weatherlink.com 1.10,2013-09-25 10:45:00,
2013-09-25 07:00:00,48.7,47.0,29.86,East,92,1.0,3.0,94,0.00,,,0.00,0,weatherlink.com 1.10,2013-09-25 11:00:00,
2013-09-25 07:15:00,48.8,47.0,29.86,East,92,1.0,6.0,94,0.00,,,0.00,0,weatherlink.com 1.10,2013-09-25 11:15:00,
2013-09-25 07:30:00,48.9,47.0,29.87,East,92,2.0,6.0,94,0.00,,,0.00,0,weatherlink.com 1.10,2013-09-25 11:30:00,
2013-09-25 07:45:00,49.0,47.0,29.87,East,92,0.0,5.0,94,0.00,,,0.00,7,weatherlink.com 1.10,2013-09-25 11:45:00,
2013-09-25 08:00:00,49.2,48.0,29.87,East,92,3.0,5.0,95,0.00,,,0.00,19,weatherlink.com 1.10,2013-09-25 12:00:00,
2013-09-25 08:15:00,49.7,48.0,29.88,East,91,3.0,6.0,94,0.00,,,0.00,60,weatherlink.com 1.10,2013-09-25 12:15:00,
2013-09-25 08:31:00,50.8,49.0,29.88,East,87,2.0,8.0,94,0.00,,,0.00,107,weatherlink.com 1.10,2013-09-25 12:31:00,
2013-09-25 08:46:00,51.7,50.0,29.88,East,87,5.0,6.0,93,0.00,,,0.00,100,weatherlink.com 1.10,2013-09-25 12:46:00,
2013-09-25 09:01:00,52.4,50.0,29.88,East,86,3.0,7.0,91,0.00,,,0.00,77,weatherlink.com 1.10,2013-09-25 13:01:00,
2013-09-25 09:16:00,52.8,50.0,29.88,East,86,1.0,6.0,91,0.00,,,0.00,120,weatherlink.com 1.10,2013-09-25 13:16:00,
2013-09-25 09:31:00,53.3,51.0,29.88,East,89,3.0,7.0,91,0.00,,,0.00,100,weatherlink.com 1.10,2013-09-25 13:31:00,
2013-09-25 09:46:00,53.9,51.0,29.89,East,89,2.0,6.0,90,0.00,,,0.00,299,weatherlink.com 1.10,2013-09-25 13:46:00,
2013-09-25 10:01:00,54.9,52.0,29.89,East,91,6.0,6.0,88,0.00,,,0.00,181,weatherlink.com 1.10,2013-09-25 14:01:00,
2013-09-25 10:16:00,55.2,52.0,29.89,East,95,2.0,5.0,88,0.00,,,0.00,165,weatherlink.com 1.10,2013-09-25 14:16:00,
2013-09-25 10:31:00,55.7,52.0,29.89,East,94,5.0,6.0,87,0.00,,,0.00,323,weatherlink.com 1.10,2013-09-25 14:31:00,
2013-09-25 10:46:00,56.5,52.0,29.89,East,90,2.0,7.0,85,0.00,,,0.00,195,weatherlink.com 1.10,2013-09-25 14:46:00,
2013-09-25 11:01:00,57.5,53.0,29.89,East,87,0.0,5.0,84,0.00,,,0.00,239,weatherlink.com 1.10,2013-09-25 15:01:00,
2013-09-25 11:16:00,59.5,54.0,29.89,East,87,1.0,6.0,81,0.00,,,0.00,364,weatherlink.com 1.10,2013-09-25 15:16:00,
2013-09-25 11:31:00,62.1,54.0,29.89,East,92,2.0,7.0,74,0.00,,,0.00,564,weatherlink.com 1.10,2013-09-25 15:31:00,
2013-09-25 11:46:00,63.4,53.0,29.89,ENE,64,5.0,9.0,70,0.00,,,0.00,640,weatherlink.com 1.10,2013-09-25 15:46:00,
2013-09-25 12:01:00,64.6,54.0,29.88,ESE,114,2.0,9.0,68,0.00,,,0.00,686,weatherlink.com 1.10,2013-09-25 16:01:00,
2013-09-25 12:16:00,65.4,54.0,29.88,East,88,3.0,8.0,66,0.00,,,0.00,719,weatherlink.com 1.10,2013-09-25 16:16:00,
2013-09-25 12:31:00,65.9,54.0,29.88,East,100,1.0,9.0,65,0.00,,,0.00,606,weatherlink.com 1.10,2013-09-25 16:31:00,
2013-09-25 12:46:00,65.6,53.0,29.88,East,93,3.0,8.0,63,0.00,,,0.00,334,weatherlink.com 1.10,2013-09-25 16:46:00,
2013-09-25 13:01:00,66.0,52.0,29.87,NE,52,2.0,8.0,61,0.00,,,0.00,659,weatherlink.com 1.10,2013-09-25 17:01:00,
2013-09-25 13:16:00,67.0,52.0,29.87,NE,43,0.0,5.0,60,0.00,,,0.00,471,weatherlink.com 1.10,2013-09-25 17:16:00,
2013-09-25 13:31:00,68.7,53.0,29.86,NNE,25,2.0,4.0,57,0.00,,,0.00,856,weatherlink.com 1.10,2013-09-25 17:31:00,
2013-09-25 13:46:00,70.2,52.0,29.86,ESE,102,1.0,8.0,52,0.00,,,0.00,819,weatherlink.com 1.10,2013-09-25 17:46:00,
2013-09-25 14:01:00,70.2,51.0,29.85,NE,43,8.0,9.0,51,0.00,,,0.00,536,weatherlink.com 1.10,2013-09-25 18:01:00,
2013-09-25 14:17:00,68.7,51.0,29.85,East,83,3.0,9.0,53,0.00,,,0.00,534,weatherlink.com 1.10,2013-09-25 18:17:00,
2013-09-25 14:32:00,69.9,51.0,29.84,ENE,72,7.0,8.0,52,0.00,,,0.00,490,weatherlink.com 1.10,2013-09-25 18:32:00,
2013-09-25 14:47:00,69.6,51.0,29.84,ENE,69,2.0,7.0,52,0.00,,,0.00,809,weatherlink.com 1.10,2013-09-25 18:47:00,
2013-09-25 15:02:00,71.2,52.0,29.83,ESE,120,0.0,5.0,50,0.00,,,0.00,759,weatherlink.com 1.10,2013-09-25 19:02:00,
2013-09-25 15:17:00,71.6,51.0,29.83,East,88,1.0,6.0,49,0.00,,,0.00,707,weatherlink.com 1.10,2013-09-25 19:17:00,
2013-09-25 15:32:00,72.4,51.0,29.83,NE,39,2.0,8.0,47,0.00,,,0.00,652,weatherlink.com 1.10,2013-09-25 19:32:00,
2013-09-25 15:47:00,72.0,51.0,29.84,ENE,57,2.0,6.0,47,0.00,,,0.00,622,weatherlink.com 1.10,2013-09-25 19:47:00,
2013-09-25 16:02:00,73.3,51.0,29.84,ENE,57,2.0,4.0,45,0.00,,,0.00,596,weatherlink.com 1.10,2013-09-25 20:02:00,
2013-09-25 16:17:00,73.2,50.0,29.82,NE,35,0.0,5.0,44,0.00,,,0.00,559,weatherlink.com 1.10,2013-09-25 20:17:00,
2013-09-25 16:32:00,73.3,49.0,29.83,East,81,0.0,6.0,43,0.00,,,0.00,531,weatherlink.com 1.10,2013-09-25 20:32:00,
2013-09-25 16:47:00,73.3,50.0,29.82,East,81,2.0,4.0,44,0.00,,,0.00,492,weatherlink.com 1.10,2013-09-25 20:47:00,
2013-09-25 17:02:00,73.1,50.0,29.81,ENE,75,0.0,9.0,44,0.00,,,0.00,454,weatherlink.com 1.10,2013-09-25 21:02:00,
2013-09-25 17:17:00,73.3,49.0,29.80,ENE,60,1.0,6.0,43,0.00,,,0.00,411,weatherlink.com 1.10,2013-09-25 21:17:00,
2013-09-25 17:32:00,74.2,50.0,29.81,NE,47,2.0,6.0,42,0.00,,,0.00,367,weatherlink.com 1.10,2013-09-25 21:32:00,
2013-09-25 17:47:00,73.6,49.0,29.82,NE,56,5.0,6.0,42,0.00,,,0.00,322,weatherlink.com 1.10,2013-09-25 21:47:00,
2013-09-25 18:02:00,73.6,48.0,29.82,NNE,21,1.0,6.0,41,0.00,,,0.00,272,weatherlink.com 1.10,2013-09-25 22:02:00,
2013-09-25 18:17:00,73.4,49.0,29.83,NNE,21,2.0,3.0,42,0.00,,,0.00,225,weatherlink.com 1.10,2013-09-25 22:17:00,
2013-09-25 18:32:00,72.2,51.0,29.83,ENE,75,4.0,12.0,48,0.00,,,0.00,167,weatherlink.com 1.10,2013-09-25 22:32:00,
2013-09-25 18:47:00,71.2,52.0,29.84,NE,48,6.0,8.0,50,0.00,,,0.00,109,weatherlink.com 1.10,2013-09-25 22:47:00,
2013-09-25 19:02:00,70.2,52.0,29.84,NE,50,3.0,8.0,52,0.00,,,0.00,53,weatherlink.com 1.10,2013-09-25 23:02:00,
2013-09-25 19:17:00,69.3,51.0,29.84,NE,50,2.0,6.0,53,0.00,,,0.00,25,weatherlink.com 1.10,2013-09-25 23:17:00,
2013-09-25 19:32:00,68.3,52.0,29.84,NE,50,0.0,3.0,56,0.00,,,0.00,9,weatherlink.com 1.10,2013-09-25 23:32:00,
2013-09-25 19:47:00,67.0,51.0,29.84,NE,50,2.0,3.0,57,0.00,,,0.00,0,weatherlink.com 1.10,2013-09-25 23:47:00,
2013-09-25 20:02:00,65.8,51.0,29.85,NE,50,1.0,3.0,60,0.00,,,0.00,0,weatherlink.com 1.10,2013-09-26 00:02:00,
2013-09-25 20:17:00,64.9,51.0,29.85,NE,50,0.0,2.0,62,0.00,,,0.00,0,weatherlink.com 1.10,2013-09-26 00:17:00,
2013-09-25 20:32:00,63.7,52.0,29.85,NE,50,0.0,0.0,66,0.00,,,0.00,0,weatherlink.com 1.10,2013-09-26 00:32:00,
2013-09-25 20:47:00,62.4,52.0,29.86,NE,50,0.0,0.0,69,0.00,,,0.00,0,weatherlink.com 1.10,2013-09-26 00:47:00,
2013-09-25 21:02:00,61.3,52.0,29.86,NE,50,0.0,0.0,72,0.00,,,0.00,0,weatherlink.com 1.10,2013-09-26 01:02:00,
2013-09-25 21:17:00,60.2,52.0,29.86,NE,50,0.0,1.0,73,0.00,,,0.00,0,weatherlink.com 1.10,2013-09-26 01:17:00,
2013-09-25 21:32:00,60.0,51.0,29.86,NE,50,0.0,2.0,73,0.00,,,0.00,0,weatherlink.com 1.10,2013-09-26 01:32:00,
2013-09-25 21:47:00,59.8,51.0,29.87,NE,50,0.0,0.0,73,0.00,,,0.00,0,weatherlink.com 1.10,2013-09-26 01:47:00,
2013-09-25 22:02:00,59.4,51.0,29.87,NE,50,0.0,0.0,75,0.00,,,0.00,0,weatherlink.com 1.10,2013-09-26 02:02:00,
2013-09-25 22:17:00,58.6,52.0,29.87,NE,50,0.0,0.0,78,0.00,,,0.00,0,weatherlink.com 1.10,2013-09-26 02:17:00,
2013-09-25 22:32:00,57.5,51.0,29.87,NE,50,0.0,1.0,80,0.00,,,0.00,0,weatherlink.com 1.10,2013-09-26 02:32:00,
2013-09-25 22:47:00,56.8,51.0,29.87,NE,50,0.0,1.0,81,0.00,,,0.00,0,weatherlink.com 1.10,2013-09-26 02:47:00,
2013-09-25 23:02:00,56.8,51.0,29.87,NE,50,0.0,1.0,82,0.00,,,0.00,0,weatherlink.com 1.10,2013-09-26 03:02:00,
2013-09-25 23:17:00,57.2,51.0,29.87,NE,50,1.0,4.0,81,0.00,,,0.00,0,weatherlink.com 1.10,2013-09-26 03:17:00,
2013-09-25 23:32:00,58.0,52.0,29.88,NE,50,0.0,3.0,79,0.00,,,0.00,0,weatherlink.com 1.10,2013-09-26 03:32:00,
2013-09-25 23:47:00,57.7,52.0,29.88,NE,50,0.0,1.0,80,0.00,,,0.00,0,weatherlink.com 1.10,2013-09-26 03:47:00,